Time;durP1;ratioP1;P1;durP2;ratioP2;P2;SDS_P1;SDS_P2;PMS_P1;PMS_P2;Temp;Humidity;BMP_temperature;BMP_pressure;BME280_temperature;BME280_humidity;BME280_pressure;Samples;Min_cycle;Max_cycle;Signal;HPM_P1;HPM_P2
2020/12/22 00:00:38;;;;;;;15.37;9.83;;;;;;;-3.47;82.70;93931.53;1769896;80;21127;-88
2020/12/22 00:03:07;;;;;;;32.80;18.97;;;;;;;-3.46;82.42;93926.45;1811786;78;21116;-86
2020/12/22 00:05:35;;;;;;;28.67;16.70;;;;;;;-3.48;82.34;93932.63;1760893;79;21212;-88
2020/12/22 00:08:11;;;;;;;21.20;12.27;;;;;;;-3.51;82.44;93935.33;1756111;79;21170;-86
2020/12/22 00:10:39;;;;;;;21.63;11.73;;;;;;;-3.54;82.50;93935.13;1837271;78;21128;-90
2020/12/22 00:13:08;;;;;;;38.53;20.33;;;;;;;-3.53;82.63;93942.82;1803392;78;21187;-87
2020/12/22 00:15:37;;;;;;;38.90;21.40;;;;;;;-3.53;82.66;93939.38;1822118;78;21154;-87
2020/12/22 00:18:07;;;;;;;33.70;18.07;;;;;;;-3.56;82.60;93940.74;1776948;79;21185;-88
2020/12/22 00:20:35;;;;;;;21.33;12.97;;;;;;;-3.59;82.66;93943.98;1785231;78;21183;-87
2020/12/22 00:23:04;;;;;;;22.60;12.67;;;;;;;-3.67;82.70;93941.46;1789341;78;21171;-86
2020/12/22 00:25:32;;;;;;;23.50;13.30;;;;;;;-3.68;83.06;93940.44;1792586;78;21191;-88
2020/12/22 00:28:01;;;;;;;26.90;14.63;;;;;;;-3.62;83.13;93937.92;1760237;80;21718;-87
2020/12/22 00:30:29;;;;;;;45.10;24.10;;;;;;;-3.58;83.16;93937.58;1807746;78;21212;-87
2020/12/22 00:32:57;;;;;;;34.67;19.27;;;;;;;-3.57;82.97;93942.34;1797785;79;21199;-86
2020/12/22 00:35:25;;;;;;;23.97;13.80;;;;;;;-3.60;83.09;93938.43;1829119;78;21226;-88
2020/12/22 00:37:54;;;;;;;27.07;14.83;;;;;;;-3.57;83.17;93937.03;1758869;80;21124;-87
2020/12/22 00:40:22;;;;;;;25.10;14.57;;;;;;;-3.55;83.00;93931.68;1819436;78;21166;-87
2020/12/22 00:42:51;;;;;;;22.70;12.93;;;;;;;-3.54;82.99;93938.56;1747053;79;22047;-87
2020/12/22 00:45:20;;;;;;;22.20;12.47;;;;;;;-3.50;83.13;93938.25;1785301;79;21644;-87
2020/12/22 00:47:49;;;;;;;30.40;16.73;;;;;;;-3.52;83.12;93932.97;1776912;78;21219;-87
2020/12/22 00:50:17;;;;;;;35.20;18.37;;;;;;;-3.51;83.22;93929.22;1771225;77;21164;-87
2020/12/22 00:52:47;;;;;;;29.67;16.77;;;;;;;-3.53;83.26;93928.75;1796332;79;21159;-87
2020/12/22 00:55:17;;;;;;;24.23;14.53;;;;;;;-3.48;83.36;93925.44;1775467;79;21591;-86
2020/12/22 00:57:46;;;;;;;24.70;14.90;;;;;;;-3.43;83.36;93927.20;1807472;79;21134;-87
2020/12/22 01:00:16;;;;;;;24.80;14.63;;;;;;;-3.42;83.32;93925.59;1785746;79;21422;-87
2020/12/22 01:02:44;;;;;;;20.77;12.03;;;;;;;-3.42;83.40;93916.84;1780401;79;21176;-88
2020/12/22 01:05:12;;;;;;;21.87;12.13;;;;;;;-3.39;83.35;93911.45;1782592;79;21231;-86
2020/12/22 01:07:40;;;;;;;21.70;12.03;;;;;;;-3.38;83.33;93913.05;1769688;79;21345;-87
2020/12/22 01:10:08;;;;;;;20.97;12.23;;;;;;;-3.38;83.35;93912.50;1777779;80;21599;-89
2020/12/22 01:12:37;;;;;;;19.73;11.57;;;;;;;-3.34;83.36;93915.36;1783013;79;21152;-87
2020/12/22 01:15:05;;;;;;;21.40;12.03;;;;;;;-3.31;83.47;93908.09;1772647;79;21148;-87
2020/12/22 01:17:33;;;;;;;21.77;12.37;;;;;;;-3.23;83.35;93908.76;1801253;79;21178;-87
2020/12/22 01:20:02;;;;;;;22.13;13.00;;;;;;;-3.16;83.19;93901.14;1802541;79;21921;-86
2020/12/22 01:22:30;;;;;;;21.17;11.43;;;;;;;-3.09;83.10;93903.41;1813483;79;21618;-87
2020/12/22 01:24:58;;;;;;;22.60;12.27;;;;;;;-3.03;82.90;93901.68;1803704;78;21164;-88
2020/12/22 01:27:26;;;;;;;21.20;12.03;;;;;;;-2.96;82.67;93903.40;1782536;78;21188;-88
2020/12/22 01:29:54;;;;;;;17.73;10.70;;;;;;;-2.91;82.30;93892.40;1799252;79;21159;-89
2020/12/22 01:32:22;;;;;;;28.43;16.73;;;;;;;-2.88;82.18;93897.13;1791535;79;22082;-87
2020/12/22 01:34:51;;;;;;;30.73;15.73;;;;;;;-2.88;81.88;93900.58;1758248;81;21156;-87
2020/12/22 01:37:19;;;;;;;34.83;18.53;;;;;;;-2.91;81.72;93894.52;1792007;79;21164;-87
2020/12/22 01:39:47;;;;;;;33.30;18.23;;;;;;;-2.95;81.84;93896.20;1795861;79;21404;-87
2020/12/22 01:42:16;;;;;;;37.90;17.97;;;;;;;-2.96;82.03;93894.63;1796066;79;21622;-87
2020/12/22 01:44:44;;;;;;;36.53;19.30;;;;;;;-2.95;81.85;93894.87;1793202;79;22060;-87
2020/12/22 01:47:13;;;;;;;82.03;41.23;;;;;;;-2.96;81.76;93891.42;1800559;79;21159;-88
2020/12/22 01:49:41;;;;;;;52.50;26.97;;;;;;;-2.97;81.83;93887.71;1796930;79;21108;-86
2020/12/22 01:52:09;;;;;;;34.93;19.83;;;;;;;-3.00;81.91;93893.11;1798002;79;21049;-87
2020/12/22 01:54:37;;;;;;;32.10;17.43;;;;;;;-3.04;82.14;93890.02;1749391;79;21128;-86
2020/12/22 01:57:11;;;;;;;28.30;16.03;;;;;;;-3.02;82.20;93889.95;1781528;79;21190;-86
2020/12/22 01:59:41;;;;;;;21.10;12.30;;;;;;;-3.01;82.15;93887.55;1747624;81;21186;-90
2020/12/22 02:02:09;;;;;;;21.63;12.77;;;;;;;-3.02;82.17;93879.84;1760795;80;21153;-86
2020/12/22 02:04:37;;;;;;;23.43;11.97;;;;;;;-3.00;82.25;93883.02;1757461;81;21618;-87
2020/12/22 02:07:08;;;;;;;20.33;12.33;;;;;;;-3.00;82.15;93882.47;1788974;79;21093;-89
2020/12/22 02:09:36;;;;;;;22.33;12.77;;;;;;;-3.03;82.18;93887.59;1799066;79;21188;-88
2020/12/22 02:12:05;;;;;;;25.50;13.33;;;;;;;-3.05;82.37;93884.43;1797704;79;21159;-89
2020/12/22 02:14:33;;;;;;;19.30;11.83;;;;;;;-3.00;82.61;93888.33;1790155;79;21344;-88
2020/12/22 02:17:01;;;;;;;20.97;12.07;;;;;;;-2.95;82.39;93883.67;1790855;79;21183;-87
2020/12/22 02:19:29;;;;;;;20.90;13.00;;;;;;;-2.92;82.18;93869.55;1757143;79;21088;-87
2020/12/22 02:21:57;;;;;;;17.97;10.33;;;;;;;-2.87;81.98;93869.42;1754712;81;21208;-87
2020/12/22 02:24:26;;;;;;;22.27;12.93;;;;;;;-2.84;82.10;93872.27;1746969;81;21233;-86
2020/12/22 02:26:54;;;;;;;23.23;12.80;;;;;;;-2.83;82.07;93863.19;1738433;81;21232;-87
2020/12/22 02:29:22;;;;;;;22.93;13.27;;;;;;;-2.84;82.16;93872.27;1754949;80;21490;-86
2020/12/22 02:31:50;;;;;;;23.80;14.20;;;;;;;-2.87;82.27;93862.22;1721704;80;21196;-87
2020/12/22 02:34:19;;;;;;;32.03;17.17;;;;;;;-2.91;82.41;93871.89;1760592;80;21194;-86
2020/12/22 02:36:47;;;;;;;32.63;18.97;;;;;;;-2.94;82.57;93869.28;1749638;80;21156;-88
2020/12/22 02:39:15;;;;;;;30.47;16.80;;;;;;;-2.95;82.70;93871.70;1753694;78;21170;-88
2020/12/22 02:41:44;;;;;;;26.77;16.23;;;;;;;-2.92;82.69;93865.55;1774157;79;21282;-87
2020/12/22 02:44:12;;;;;;;25.47;15.33;;;;;;;-2.92;82.75;93866.88;1798494;79;21105;-87
2020/12/22 02:46:40;;;;;;;29.73;15.03;;;;;;;-2.92;82.71;93862.34;1738633;80;22086;-87
2020/12/22 02:49:08;;;;;;;24.20;14.63;;;;;;;-2.91;82.68;93854.59;1792257;78;21434;-86
2020/12/22 02:51:36;;;;;;;24.27;13.47;;;;;;;-2.87;82.77;93849.46;1810389;78;21391;-87
2020/12/22 02:54:04;;;;;;;22.63;13.07;;;;;;;-2.84;82.62;93844.88;1809097;79;21180;-87
2020/12/22 02:56:33;;;;;;;21.73;13.00;;;;;;;-2.76;82.19;93848.93;1794691;79;21155;-87
2020/12/22 02:59:01;;;;;;;20.60;12.90;;;;;;;-2.68;81.83;93844.77;1793208;80;22068;-87
2020/12/22 03:01:29;;;;;;;30.87;17.70;;;;;;;-2.66;81.56;93839.94;1791632;79;21607;-88
2020/12/22 03:03:57;;;;;;;60.80;31.00;;;;;;;-2.65;81.64;93835.39;1794266;78;21084;-87
2020/12/22 03:06:25;;;;;;;63.07;33.63;;;;;;;-2.69;81.85;93833.88;1797392;79;21152;-87
2020/12/22 03:08:54;;;;;;;63.33;31.00;;;;;;;-2.72;82.06;93832.59;1792822;79;21746;-86
2020/12/22 03:11:22;;;;;;;63.40;31.17;;;;;;;-2.73;82.17;93838.23;1793270;80;21266;-86
2020/12/22 03:13:50;;;;;;;57.50;26.20;;;;;;;-2.78;82.22;93828.50;1792859;79;21705;-88
2020/12/22 03:16:18;;;;;;;41.60;21.90;;;;;;;-2.80;82.40;93828.00;1792185;79;21184;-86
2020/12/22 03:18:46;;;;;;;23.83;12.43;;;;;;;-2.78;82.38;93833.81;1764731;80;21143;-87
2020/12/22 03:21:16;;;;;;;33.60;18.97;;;;;;;-2.74;82.07;93828.68;1808120;79;21176;-88
2020/12/22 03:23:44;;;;;;;28.30;15.67;;;;;;;-2.70;81.82;93821.66;1808466;79;21196;-86
2020/12/22 03:26:12;;;;;;;31.70;17.13;;;;;;;-2.72;81.73;93824.61;1792220;79;21140;-87
2020/12/22 03:28:41;;;;;;;34.10;16.40;;;;;;;-2.73;81.71;93816.94;1800799;78;21649;-87
2020/12/22 03:31:09;;;;;;;27.50;15.43;;;;;;;-2.74;81.95;93818.81;1780509;79;21136;-87
2020/12/22 03:33:37;;;;;;;26.00;14.97;;;;;;;-2.69;81.87;93817.36;1778297;79;21056;-87
2020/12/22 03:36:07;;;;;;;24.97;13.47;;;;;;;-2.75;81.59;93803.91;1787965;80;22140;-87
2020/12/22 03:38:35;;;;;;;32.60;17.30;;;;;;;-2.86;81.74;93805.23;1784269;80;21215;-86
2020/12/22 03:41:05;;;;;;;23.33;12.90;;;;;;;-2.94;81.99;93804.63;1717322;82;21648;-88
2020/12/22 03:43:33;;;;;;;16.07;9.70;;;;;;;-3.00;82.29;93799.20;1738055;80;21188;-86
2020/12/22 03:46:01;;;;;;;18.00;10.03;;;;;;;-3.07;82.20;93798.27;1771874;79;21238;-88
2020/12/22 03:48:29;;;;;;;23.97;13.17;;;;;;;-3.10;82.24;93791.44;1809255;78;22063;-87
2020/12/22 03:50:57;;;;;;;20.23;10.53;;;;;;;-3.07;82.45;93792.95;1797286;78;21655;-88
2020/12/22 03:53:25;;;;;;;25.47;14.07;;;;;;;-3.04;82.40;93790.24;1833543;78;21158;-87
2020/12/22 03:55:53;;;;;;;31.03;17.90;;;;;;;-3.04;82.38;93787.58;1757361;79;21199;-87
2020/12/22 03:58:21;;;;;;;29.50;16.73;;;;;;;-3.03;82.49;93782.50;1790209;79;21125;-86
2020/12/22 04:00:49;;;;;;;20.03;13.10;;;;;;;-3.04;82.46;93785.70;1779923;80;21193;-87
2020/12/22 04:03:18;;;;;;;20.47;12.40;;;;;;;-3.11;82.54;93784.00;1753581;81;21148;-87
2020/12/22 04:05:46;;;;;;;17.47;10.73;;;;;;;-3.13;82.83;93780.84;1822648;78;21182;-87
2020/12/22 04:08:15;;;;;;;17.00;9.27;;;;;;;-3.14;82.90;93782.48;1754443;81;21180;-87
2020/12/22 04:10:44;;;;;;;15.17;8.97;;;;;;;-3.18;82.92;93775.09;1802024;79;21630;-87
2020/12/22 04:13:12;;;;;;;18.37;9.80;;;;;;;-3.20;83.22;93775.14;1820801;78;21363;-87
2020/12/22 04:15:40;;;;;;;12.97;7.27;;;;;;;-3.25;83.37;93776.05;1813427;78;21203;-88
2020/12/22 04:18:08;;;;;;;15.43;9.20;;;;;;;-3.25;83.42;93784.03;1811243;78;21120;-88
2020/12/22 04:20:38;;;;;;;14.83;9.63;;;;;;;-3.28;83.53;93773.98;1741786;81;21177;-86
2020/12/22 04:23:07;;;;;;;13.77;8.77;;;;;;;-3.30;83.41;93770.85;1767429;80;21431;-87
2020/12/22 04:25:35;;;;;;;13.93;8.70;;;;;;;-3.29;83.40;93769.75;1766929;79;21374;-88
2020/12/22 04:28:03;;;;;;;16.63;10.13;;;;;;;-3.24;83.04;93764.86;1777643;80;21594;-87
2020/12/22 04:30:31;;;;;;;18.07;10.97;;;;;;;-3.28;82.87;93762.02;1783388;80;21142;-88
2020/12/22 04:33:00;;;;;;;18.37;11.73;;;;;;;-3.29;82.85;93760.45;1780050;79;21926;-87
2020/12/22 04:35:28;;;;;;;17.13;9.93;;;;;;;-3.29;82.97;93757.00;1804707;79;21175;-87
2020/12/22 04:37:56;;;;;;;15.80;10.20;;;;;;;-3.28;82.90;93763.89;1750107;79;21366;-87
2020/12/22 04:40:24;;;;;;;14.40;9.93;;;;;;;-3.30;82.81;93760.21;1756825;79;21128;-87
2020/12/22 04:42:53;;;;;;;17.53;10.33;;;;;;;-3.31;82.71;93758.64;1801997;78;21143;-88
2020/12/22 04:45:22;;;;;;;24.50;13.80;;;;;;;-3.37;82.62;93746.53;1796628;78;21474;-88
2020/12/22 04:47:50;;;;;;;23.60;15.00;;;;;;;-3.42;82.78;93744.00;1748786;81;21155;-86
2020/12/22 04:50:19;;;;;;;14.63;9.47;;;;;;;-3.46;82.97;93743.00;1842538;77;21201;-87
2020/12/22 04:52:47;;;;;;;12.67;8.27;;;;;;;-3.52;83.08;93737.02;1776384;79;21646;-87
2020/12/22 04:55:16;;;;;;;16.23;10.17;;;;;;;-3.55;83.22;93740.27;1773132;80;21615;-87
2020/12/22 04:57:54;;;;;;;13.67;9.03;;;;;;;-3.60;83.39;93739.05;1762554;79;21164;-88
2020/12/22 05:00:21;;;;;;;16.43;9.77;;;;;;;-3.62;83.69;93734.56;1809154;79;21149;-87
2020/12/22 05:02:50;;;;;;;13.80;9.27;;;;;;;-3.66;83.77;93728.28;1832987;78;21145;-89
2020/12/22 05:05:19;;;;;;;14.17;8.87;;;;;;;-3.67;83.87;93726.17;1805600;79;21559;-87
2020/12/22 05:07:48;;;;;;;13.50;9.47;;;;;;;-3.66;84.02;93724.30;1750694;80;21173;-87
2020/12/22 05:10:16;;;;;;;16.00;8.93;;;;;;;-3.66;83.99;93727.73;1757284;81;21109;-86
2020/12/22 05:12:44;;;;;;;15.63;9.47;;;;;;;-3.62;84.03;93721.83;1780697;77;21175;-88
2020/12/22 05:15:13;;;;;;;13.87;8.73;;;;;;;-3.62;84.05;93720.49;1815938;77;21359;-86
2020/12/22 05:17:45;;;;;;;12.53;8.17;;;;;;;-3.61;84.07;93727.38;1812492;77;21163;-87
2020/12/22 05:20:14;;;;;;;15.67;8.17;;;;;;;-3.62;84.12;93710.64;1813441;79;21645;-87
2020/12/22 05:22:47;;;;;;;12.30;8.30;;;;;;;-3.65;84.27;93711.23;1800839;77;21130;-87
2020/12/22 05:25:18;;;;;;;11.47;6.90;;;;;;;-3.67;84.32;93707.56;1765171;78;21191;-88
2020/12/22 05:27:49;;;;;;;12.07;7.63;;;;;;;-3.67;84.47;93707.56;1743903;80;21248;-87
2020/12/22 05:30:18;;;;;;;11.27;6.80;;;;;;;-3.68;84.53;93707.33;1776715;77;21181;-90
2020/12/22 05:32:53;;;;;;;9.83;6.67;;;;;;;-3.72;84.55;93707.68;1810138;79;21562;-90
2020/12/22 05:35:21;;;;;;;9.95;6.15;;;;;;;-3.76;84.60;93708.55;1837353;76;21143;-90
2020/12/22 05:37:50;;;;;;;7.87;5.87;;;;;;;-3.81;84.69;93714.77;1798774;79;21176;-89
2020/12/22 05:40:20;;;;;;;10.13;6.90;;;;;;;-3.83;84.74;93725.47;1756920;81;21247;-91
2020/12/22 05:42:48;;;;;;;8.57;5.73;;;;;;;-3.88;84.90;93727.66;1736949;80;21333;-87
2020/12/22 05:45:17;;;;;;;6.90;5.27;;;;;;;-3.93;84.89;93723.25;1778178;80;21649;-83
2020/12/22 05:47:45;;;;;;;8.73;6.20;;;;;;;-3.94;84.88;93731.52;1795372;79;21529;-88
2020/12/22 05:50:13;;;;;;;11.97;7.63;;;;;;;-3.97;84.93;93728.13;1752723;79;21143;-87
2020/12/22 05:52:43;;;;;;;7.70;4.80;;;;;;;-3.99;84.93;93731.61;1758491;80;21296;-87
2020/12/22 05:55:11;;;;;;;10.73;7.30;;;;;;;-4.01;84.95;93733.24;1754640;79;21112;-89
2020/12/22 05:57:40;;;;;;;7.40;5.53;;;;;;;-4.00;85.19;93728.72;1778342;79;21217;-89
2020/12/22 06:00:17;;;;;;;7.30;5.07;;;;;;;-4.04;84.96;93728.52;1753146;81;21183;-88
2020/12/22 06:02:48;;;;;;;19.50;12.50;;;;;;;-4.10;85.02;93723.05;1766306;80;21642;-87
2020/12/22 06:05:17;;;;;;;7.10;4.90;;;;;;;-4.17;85.53;93724.80;1759319;80;21368;-90
2020/12/22 06:07:45;;;;;;;9.27;5.83;;;;;;;-4.18;85.65;93713.13;1755796;80;21667;-89
2020/12/22 06:10:15;;;;;;;9.77;6.50;;;;;;;-4.21;85.60;93697.80;1772482;79;21069;-88
2020/12/22 06:12:44;;;;;;;11.20;6.37;;;;;;;-4.22;85.68;93704.17;1757007;79;21164;-89
2020/12/22 06:15:14;;;;;;;12.43;6.30;;;;;;;-4.25;85.87;93696.28;1716730;83;21713;-89
2020/12/22 06:17:42;;;;;;;14.03;7.80;;;;;;;-4.22;86.14;93698.31;1753024;81;21389;-85
2020/12/22 06:20:11;;;;;;;14.53;8.87;;;;;;;-4.22;86.59;93689.02;1736614;82;21185;-87
2020/12/22 06:22:39;;;;;;;11.47;7.57;;;;;;;-4.16;86.81;93697.14;1751021;79;21176;-88
2020/12/22 06:25:07;;;;;;;13.57;8.10;;;;;;;-4.10;86.85;93691.72;1800136;79;21670;-86
2020/12/22 06:27:36;;;;;;;13.13;7.70;;;;;;;-4.06;86.70;93694.84;1737686;80;21211;-87
2020/12/22 06:30:04;;;;;;;13.47;8.63;;;;;;;-4.00;86.72;93691.52;1775565;80;21181;-88
2020/12/22 06:32:33;;;;;;;14.60;7.60;;;;;;;-3.98;86.63;93687.50;1792951;79;21131;-81
2020/12/22 06:38:35;;;;;;;13.70;7.43;;;;;;;-3.85;86.50;93691.20;1880311;75;25169;-73
2020/12/22 06:41:03;;;;;;;13.47;8.87;;;;;;;-3.82;86.34;93680.53;1731109;81;21224;-73
2020/12/22 06:43:42;;;;;;;18.87;9.90;;;;;;;-3.78;85.93;93697.45;1790948;79;21685;-74
2020/12/22 06:46:31;;;;;;;23.60;14.07;;;;;;;-3.80;85.82;93691.63;1768198;78;21761;-74
2020/12/22 06:49:02;;;;;;;16.47;10.40;;;;;;;-3.81;85.82;93688.73;1782368;78;21659;-73
2020/12/22 06:51:34;;;;;;;17.60;9.53;;;;;;;-3.82;85.85;93684.52;1743929;79;21181;-72
2020/12/22 06:54:17;;;;;;;14.87;8.13;;;;;;;-3.82;85.79;93680.53;1776338;79;21411;-73
2020/12/22 06:56:50;;;;;;;12.13;7.97;;;;;;;-3.81;85.90;93681.55;1750552;80;22494;-74
2020/12/22 06:59:44;;;;;;;19.93;10.27;;;;;;;-3.75;85.95;93681.70;1785180;78;21186;-73
2020/12/22 07:02:39;;;;;;;17.03;10.53;;;;;;;-3.69;85.65;93668.52;1789563;79;21121;-74
2020/12/22 07:05:07;;;;;;;39.07;20.37;;;;;;;-3.34;85.89;93680.01;1776299;79;21263;-74
2020/12/22 07:07:54;;;;;;;15.57;9.83;;;;;;;-2.95;84.92;93672.13;1800621;78;21075;-75
2020/12/22 07:10:23;;;;;;;18.10;9.37;;;;;;;-2.67;83.40;93676.50;1784250;79;21251;-75
2020/12/22 07:12:51;;;;;;;16.13;9.93;;;;;;;-2.42;80.95;93675.84;1744500;81;21144;-74
2020/12/22 07:15:19;;;;;;;13.97;9.60;;;;;;;-2.28;80.30;93681.85;1695120;81;21301;-74
2020/12/22 07:17:51;;;;;;;11.50;7.37;;;;;;;-2.02;79.85;93686.48;1751008;79;21130;-74
2020/12/22 07:20:19;;;;;;;15.40;10.23;;;;;;;-1.88;79.31;93670.36;1776425;80;21924;-74
2020/12/22 07:22:47;;;;;;;18.47;10.97;;;;;;;-1.87;78.95;93679.94;1804636;78;22094;-73
2020/12/22 07:25:17;;;;;;;16.70;10.33;;;;;;;-2.04;78.63;93678.00;1765498;79;21209;-74
2020/12/22 07:27:45;;;;;;;16.77;9.70;;;;;;;-2.15;78.71;93676.72;1750415;80;21175;-75
2020/12/22 07:30:13;;;;;;;16.80;9.27;;;;;;;-2.22;78.86;93680.63;1743766;78;21195;-74
2020/12/22 07:32:42;;;;;;;18.27;11.23;;;;;;;-2.18;79.20;93682.14;1808510;78;21214;-74
2020/12/22 07:35:13;;;;;;;20.03;11.50;;;;;;;-2.17;78.70;93674.92;1735066;80;21674;-74
2020/12/22 07:37:43;;;;;;;20.83;12.10;;;;;;;-2.06;79.00;93670.88;1777082;79;21158;-74
2020/12/22 07:40:12;;;;;;;16.80;9.20;;;;;;;-1.93;78.58;93677.95;1812347;77;21235;-73
2020/12/22 07:42:40;;;;;;;14.50;9.73;;;;;;;-1.84;78.29;93669.97;1775845;80;21189;-73
2020/12/22 07:45:08;;;;;;;18.93;11.53;;;;;;;-1.68;77.81;93671.11;1778397;76;21243;-74
2020/12/22 07:47:37;;;;;;;16.67;10.87;;;;;;;-1.45;76.77;93657.64;1857839;77;21589;-75
2020/12/22 07:50:16;;;;;;;13.57;8.87;;;;;;;-1.36;76.12;93663.75;1779473;77;21203;-74
2020/12/22 07:52:57;;;;;;;12.77;9.30;;;;;;;-1.35;76.47;93656.78;1842320;76;21598;-75
2020/12/22 07:55:26;;;;;;;15.58;9.88;;;;;;;-1.04;76.62;93651.81;1795725;77;21175;-75
2020/12/22 07:57:54;;;;;;;18.07;12.47;;;;;;;-0.65;74.24;93652.66;1770632;79;21188;-75
2020/12/22 08:00:22;;;;;;;18.52;11.12;;;;;;;-0.38;74.29;93647.46;1777744;79;22321;-76
2020/12/22 08:02:50;;;;;;;18.32;12.28;;;;;;;-0.04;72.82;93647.86;1722196;82;21261;-76
2020/12/22 08:05:18;;;;;;;12.47;8.48;;;;;;;0.29;73.38;93655.23;1805519;77;21194;-76
2020/12/22 08:07:52;;;;;;;12.10;8.08;;;;;;;0.72;71.01;93654.95;1737112;79;21248;-76
2020/12/22 08:10:21;;;;;;;15.63;10.05;;;;;;;1.14;72.50;93661.03;1759412;78;21189;-76
2020/12/22 08:12:56;;;;;;;18.77;10.63;;;;;;;1.77;69.43;93652.81;1779477;78;22709;-75
2020/12/22 08:15:24;;;;;;;16.12;11.33;;;;;;;2.14;67.47;93657.64;1772590;79;21171;-76
2020/12/22 08:17:54;;;;;;;14.80;10.13;;;;;;;2.55;65.36;93661.16;1740319;81;21644;-76
2020/12/22 08:20:23;;;;;;;15.08;9.68;;;;;;;2.76;63.91;93648.16;1760682;80;21119;-77
2020/12/22 08:22:51;;;;;;;15.70;10.03;;;;;;;2.81;64.90;93648.69;1758356;79;21175;-77
2020/12/22 08:25:19;;;;;;;17.00;12.05;;;;;;;3.02;64.13;93640.46;1778980;79;21194;-76
2020/12/22 08:27:47;;;;;;;13.68;10.80;;;;;;;3.40;61.29;93643.20;1770904;79;21270;-76
2020/12/22 08:30:17;;;;;;;14.95;10.40;;;;;;;3.45;60.98;93646.97;1729553;80;21630;-76
2020/12/22 08:32:45;;;;;;;21.52;14.35;;;;;;;3.45;60.69;93639.48;1774705;80;21697;-78
2020/12/22 08:35:35;;;;;;;15.68;11.60;;;;;;;3.41;61.63;93640.73;1761683;80;21235;-77
2020/12/22 08:38:05;;;;;;;21.17;13.85;;;;;;;3.54;61.97;93640.11;1724640;80;21393;-76
2020/12/22 08:40:33;;;;;;;21.45;15.75;;;;;;;3.96;61.14;93633.67;1629577;85;21600;-81
2020/12/22 08:43:03;;;;;;;20.55;12.95;;;;;;;4.33;60.23;93637.42;1683216;82;21195;-77
2020/12/22 08:45:33;;;;;;;17.45;11.88;;;;;;;4.72;58.48;93625.38;1736467;81;21306;-77
2020/12/22 08:48:06;;;;;;;10.85;8.13;;;;;;;5.08;58.06;93625.55;1721880;78;21237;-77
2020/12/22 08:50:49;;;;;;;11.37;8.20;;;;;;;5.38;56.32;93623.05;1711371;80;21342;-77
2020/12/22 08:53:18;;;;;;;8.73;6.33;;;;;;;5.46;56.30;93626.08;1720133;81;21302;-78
2020/12/22 08:55:55;;;;;;;14.78;9.10;;;;;;;5.86;54.73;93624.84;1672635;82;21246;-78
2020/12/22 08:58:26;;;;;;;8.47;6.47;;;;;;;6.33;53.41;93607.51;1660963;83;21264;-80
2020/12/22 09:01:00;;;;;;;10.03;7.62;;;;;;;6.58;54.20;93621.36;1679461;83;21288;-79
2020/12/22 09:03:28;;;;;;;8.40;6.10;;;;;;;6.79;52.50;93601.39;1705031;82;21294;-78
2020/12/22 09:05:57;;;;;;;7.80;6.28;;;;;;;6.70;52.56;93603.59;1744654;78;21274;-75
2020/12/22 09:08:25;;;;;;;7.03;5.97;;;;;;;6.73;53.23;93603.42;1762959;79;21150;-76
2020/12/22 09:10:53;;;;;;;7.50;5.20;;;;;;;7.05;51.56;93605.97;1759532;78;21223;-76
2020/12/22 09:13:22;;;;;;;4.97;4.17;;;;;;;7.06;48.64;93585.11;1772509;80;21665;-74
2020/12/22 09:15:55;;;;;;;5.45;4.95;;;;;;;6.62;50.75;93596.55;1776074;78;21563;-76
2020/12/22 09:18:24;;;;;;;6.55;4.92;;;;;;;6.22;51.22;93595.77;1760630;78;21224;-77
2020/12/22 09:21:07;;;;;;;7.20;5.42;;;;;;;5.85;53.19;93593.61;1731496;81;21267;-76
2020/12/22 09:23:46;;;;;;;4.97;3.05;;;;;;;5.62;53.41;93595.53;1674708;82;21207;-79
2020/12/22 09:26:14;;;;;;;4.00;3.52;;;;;;;5.11;53.67;93589.23;1729081;80;21095;-76
2020/12/22 09:28:44;;;;;;;4.50;3.40;;;;;;;4.81;55.58;93582.83;1722432;80;21684;-76
2020/12/22 09:31:17;;;;;;;5.47;3.50;;;;;;;4.72;55.63;93583.63;1715709;82;21274;-77
2020/12/22 09:33:46;;;;;;;3.77;3.00;;;;;;;4.72;56.20;93578.23;1698112;81;21302;-80
2020/12/22 09:36:14;;;;;;;3.17;2.83;;;;;;;4.74;56.44;93577.30;1731127;80;21186;-76
2020/12/22 09:38:43;;;;;;;4.28;2.92;;;;;;;4.78;56.05;93574.91;1751652;79;21637;-79
2020/12/22 09:41:12;;;;;;;3.00;2.80;;;;;;;4.46;56.20;93565.38;1768235;80;21387;-78
2020/12/22 09:43:41;;;;;;;3.55;3.25;;;;;;;4.28;57.63;93564.98;1728465;81;21279;-79
2020/12/22 09:46:13;;;;;;;3.83;3.22;;;;;;;4.28;57.63;93564.98;1753847;80;21169;-80
2020/12/22 09:48:44;;;;;;;3.37;3.08;;;;;;;4.35;57.12;93545.73;1718110;80;21214;-78
2020/12/22 09:51:15;;;;;;;2.92;2.65;;;;;;;4.42;57.53;93555.88;1704011;79;21174;-79
2020/12/22 09:53:45;;;;;;;;;;;;;;;;;;;;;
2020/12/22 09:56:15;;;;;;;2.75;2.52;;;;;;;4.42;57.41;93543.76;1731943;80;21197;-80
2020/12/22 09:58:43;;;;;;;4.28;2.60;;;;;;;4.55;58.04;93546.55;1727139;82;21724;-75
2020/12/22 10:01:13;;;;;;;3.52;3.22;;;;;;;4.70;56.62;93542.77;1731508;80;21205;-77
2020/12/22 10:03:42;;;;;;;2.58;2.37;;;;;;;4.71;55.82;93536.27;1758471;78;21158;-80
2020/12/22 10:06:17;;;;;;;3.22;2.92;;;;;;;4.71;55.82;93536.27;1765993;79;21287;-77
2020/12/22 10:08:48;;;;;;;3.27;2.98;;;;;;;4.70;56.51;93534.15;1768251;79;21201;-78
2020/12/22 10:11:16;;;;;;;3.12;2.83;;;;;;;4.84;56.39;93541.14;1744654;80;21239;-80
2020/12/22 10:13:44;;;;;;;3.10;2.80;;;;;;;4.91;56.47;93536.47;1717942;81;21203;-77
2020/12/22 10:16:15;;;;;;;4.03;3.35;;;;;;;4.95;56.56;93533.84;1731005;80;21238;-77
2020/12/22 10:18:43;;;;;;;2.67;2.47;;;;;;;5.01;56.50;93533.77;1759986;80;21199;-77
2020/12/22 10:21:13;;;;;;;3.45;2.25;;;;;;;4.97;56.04;93539.09;1728861;80;21089;-78
2020/12/22 10:23:46;;;;;;;3.37;3.08;;;;;;;4.92;56.03;93535.32;1746142;80;21064;-79
2020/12/22 10:26:19;;;;;;;3.17;2.87;;;;;;;4.81;56.55;93528.41;1729159;80;22853;-75
2020/12/22 10:28:49;;;;;;;3.12;2.83;;;;;;;4.53;56.47;93523.79;1694437;82;21203;-80
2020/12/22 10:31:20;;;;;;;3.58;2.98;;;;;;;4.11;57.22;93524.45;1722324;80;21438;-79
2020/12/22 10:33:48;;;;;;;3.35;2.83;;;;;;;3.73;57.83;93514.37;1754804;80;21199;-79
2020/12/22 10:36:18;;;;;;;3.70;3.17;;;;;;;3.41;58.82;93514.37;1731844;80;21662;-78
2020/12/22 10:38:53;;;;;;;3.12;2.83;;;;;;;3.22;59.86;93498.17;1733355;80;21183;-76
2020/12/22 10:41:21;;;;;;;4.58;3.22;;;;;;;3.06;60.46;93498.94;1769054;79;21250;-76
2020/12/22 10:43:50;;;;;;;3.47;3.17;;;;;;;2.98;61.01;93497.77;1751563;80;21825;-77
2020/12/22 10:46:18;;;;;;;3.87;3.50;;;;;;;2.86;61.49;93501.31;1743671;80;21194;-79
2020/12/22 10:48:47;;;;;;;3.25;2.95;;;;;;;2.74;61.95;93502.69;1733737;80;21669;-77
2020/12/22 10:51:16;;;;;;;4.75;4.08;;;;;;;2.63;62.54;93508.58;1709484;82;21167;-78
2020/12/22 10:53:45;;;;;;;4.40;3.90;;;;;;;2.57;62.50;93504.56;1736821;82;21163;-75
2020/12/22 10:56:14;;;;;;;4.50;3.77;;;;;;;2.56;63.14;93508.95;1779096;78;21366;-79
2020/12/22 10:58:43;;;;;;;3.60;3.30;;;;;;;2.54;63.39;93513.86;1747683;80;21190;-79
2020/12/22 11:01:15;;;;;;;3.90;3.50;;;;;;;2.49;63.02;93510.09;1738243;80;21191;-74
2020/12/22 11:03:46;;;;;;;3.30;2.87;;;;;;;2.39;62.98;93511.34;1734980;80;21263;-75
2020/12/22 11:08:55;;;;;;;4.78;4.00;;;;;;;2.19;64.32;93507.72;1774708;79;21576;-79
2020/12/22 11:11:25;;;;;;;4.78;3.98;;;;;;;2.10;64.64;93500.36;1784567;79;21289;-78
2020/12/22 11:13:56;;;;;;;4.40;4.00;;;;;;;2.04;64.61;93502.50;1784784;79;21453;-77
2020/12/22 11:16:29;;;;;;;3.52;3.22;;;;;;;2.01;65.16;93499.72;1767715;78;21176;-77
2020/12/22 11:19:00;;;;;;;21.23;10.82;;;;;;;1.95;65.61;93504.52;1786382;78;21572;-75
2020/12/22 11:21:28;;;;;;;4.65;3.85;;;;;;;1.85;65.73;93511.14;1785504;78;21367;-82
2020/12/22 11:23:56;;;;;;;7.65;5.20;;;;;;;1.75;65.86;93504.12;1726836;81;21717;-82
2020/12/22 11:26:27;;;;;;;4.10;3.70;;;;;;;1.68;66.01;93497.97;1764805;79;21119;-77
2020/12/22 11:28:57;;;;;;;3.75;3.35;;;;;;;1.66;66.14;93503.69;1770082;78;21643;-80
2020/12/22 11:31:25;;;;;;;6.25;4.55;;;;;;;1.58;66.52;93504.59;1776567;79;21276;-78
2020/12/22 11:33:53;;;;;;;6.90;4.05;;;;;;;1.51;66.77;93501.69;1778124;79;22063;-76
2020/12/22 11:36:22;;;;;;;6.45;5.17;;;;;;;1.45;67.44;93501.67;1781296;79;21186;-77
2020/12/22 11:38:50;;;;;;;7.20;4.40;;;;;;;1.35;67.49;93496.19;1785343;79;21213;-76
2020/12/22 11:41:23;;;;;;;5.50;4.60;;;;;;;1.31;68.08;93506.02;1803988;78;21161;-78
2020/12/22 11:43:53;;;;;;;4.67;3.45;;;;;;;1.30;68.22;93501.00;1793445;78;21306;-76